sensor_id;sensor_type;location;lat;lon;timestamp;temperature;humidity
75517;DHT22;64097;52.548;13.406;2023-09-18T06:03:31;23.90;56.50
75517;DHT22;64097;52.548;13.406;2023-09-18T06:06:04;23.90;56.40
75517;DHT22;64097;52.548;13.406;2023-09-18T06:08:32;24.00;56.50
75517;DHT22;64097;52.548;13.406;2023-09-18T06:10:58;24.00;56.50
75517;DHT22;64097;52.548;13.406;2023-09-18T06:13:24;24.00;56.50
75517;DHT22;64097;52.548;13.406;2023-09-18T06:15:51;24.00;56.40
75517;DHT22;64097;52.548;13.406;2023-09-18T06:18:20;24.10;57.20
75517;DHT22;64097;52.548;13.406;2023-09-18T06:20:49;24.00;56.30
75517;DHT22;64097;52.548;13.406;2023-09-18T06:23:15;24.10;56.30
75517;DHT22;64097;52.548;13.406;2023-09-18T06:25:41;24.10;56.30
75517;DHT22;64097;52.548;13.406;2023-09-18T06:28:06;24.10;56.20
75517;DHT22;64097;52.548;13.406;2023-09-18T06:30:33;24.10;56.20
75517;DHT22;64097;52.548;13.406;2023-09-18T06:33:00;24.10;56.20
75517;DHT22;64097;52.548;13.406;2023-09-18T06:35:26;24.20;56.30
75517;DHT22;64097;52.548;13.406;2023-09-18T06:37:52;24.20;56.30
75517;DHT22;64097;52.548;13.406;2023-09-18T06:40:20;24.20;56.20
75517;DHT22;64097;52.548;13.406;2023-09-18T06:42:45;24.20;56.20
75517;DHT22;64097;52.548;13.406;2023-09-18T06:45:11;24.20;56.30
75517;DHT22;64097;52.548;13.406;2023-09-18T06:47:38;24.20;56.20
75517;DHT22;64097;52.548;13.406;2023-09-18T06:50:06;24.30;56.30
75517;DHT22;64097;52.548;13.406;2023-09-18T06:52:32;24.30;56.20
75517;DHT22;64097;52.548;13.406;2023-09-18T06:54:58;24.30;56.20
75517;DHT22;64097;52.548;13.406;2023-09-18T06:57:25;24.30;56.20
75517;DHT22;64097;52.548;13.406;2023-09-18T06:59:51;24.40;56.20
75517;DHT22;64097;52.548;13.406;2023-09-18T07:02:16;24.40;56.20
75517;DHT22;64097;52.548;13.406;2023-09-18T07:04:42;24.40;56.10
75517;DHT22;64097;52.548;13.406;2023-09-18T07:07:14;24.40;56.00
75517;DHT22;64097;52.548;13.406;2023-09-18T07:09:41;24.50;56.00
75517;DHT22;64097;52.548;13.406;2023-09-18T07:12:08;24.50;55.90
75517;DHT22;64097;52.548;13.406;2023-09-18T07:14:35;24.50;55.90
75517;DHT22;64097;52.548;13.406;2023-09-18T07:17:01;24.60;55.90
75517;DHT22;64097;52.548;13.406;2023-09-18T07:19:27;24.60;55.90
75517;DHT22;64097;52.548;13.406;2023-09-18T07:21:53;24.60;55.80
75517;DHT22;64097;52.548;13.406;2023-09-18T07:24:19;24.70;55.90
75517;DHT22;64097;52.548;13.406;2023-09-18T07:26:47;24.70;55.90
75517;DHT22;64097;52.548;13.406;2023-09-18T07:29:13;24.70;55.80
75517;DHT22;64097;52.548;13.406;2023-09-18T07:31:41;24.70;55.80
75517;DHT22;64097;52.548;13.406;2023-09-18T07:34:07;24.70;55.80
75517;DHT22;64097;52.548;13.406;2023-09-18T07:36:32;24.70;55.80
75517;DHT22;64097;52.548;13.406;2023-09-18T07:38:58;24.80;55.80
75517;DHT22;64097;52.548;13.406;2023-09-18T07:41:24;24.80;55.80
75517;DHT22;64097;52.548;13.406;2023-09-18T07:43:50;24.90;55.80
75517;DHT22;64097;52.548;13.406;2023-09-18T07:46:16;24.90;55.80
75517;DHT22;64097;52.548;13.406;2023-09-18T07:48:42;25.00;55.70
75517;DHT22;64097;52.548;13.406;2023-09-18T07:51:12;25.00;55.60
75517;DHT22;64097;52.548;13.406;2023-09-18T07:53:39;25.10;56.40
75517;DHT22;64097;52.548;13.406;2023-09-18T07:56:04;25.10;55.60
75517;DHT22;64097;52.548;13.406;2023-09-18T07:58:31;25.10;55.50
75517;DHT22;64097;52.548;13.406;2023-09-18T08:00:59;25.20;55.50
75517;DHT22;64097;52.548;13.406;2023-09-18T08:03:28;25.30;55.50
75517;DHT22;64097;52.548;13.406;2023-09-18T08:05:54;25.30;55.40
75517;DHT22;64097;52.548;13.406;2023-09-18T08:08:21;25.30;55.40
75517;DHT22;64097;52.548;13.406;2023-09-18T08:10:48;25.40;55.40
75517;DHT22;64097;52.548;13.406;2023-09-18T08:13:13;25.40;55.40
75517;DHT22;64097;52.548;13.406;2023-09-18T08:15:39;25.50;55.30
75517;DHT22;64097;52.548;13.406;2023-09-18T08:18:05;25.50;55.00
75517;DHT22;64097;52.548;13.406;2023-09-18T08:20:31;25.60;55.00
75517;DHT22;64097;52.548;13.406;2023-09-18T08:22:58;25.60;54.90
75517;DHT22;64097;52.548;13.406;2023-09-18T08:25:27;25.60;54.90
75517;DHT22;64097;52.548;13.406;2023-09-18T08:27:53;25.70;55.00
75517;DHT22;64097;52.548;13.406;2023-09-18T08:30:18;25.70;55.00
75517;DHT22;64097;52.548;13.406;2023-09-18T08:32:46;25.80;55.00
75517;DHT22;64097;52.548;13.406;2023-09-18T08:35:13;25.80;55.00
75517;DHT22;64097;52.548;13.406;2023-09-18T08:37:40;25.80;54.80
75517;DHT22;64097;52.548;13.406;2023-09-18T08:40:09;25.80;54.60
75517;DHT22;64097;52.548;13.406;2023-09-18T08:42:38;25.90;54.60
75517;DHT22;64097;52.548;13.406;2023-09-18T08:45:08;25.90;54.50
75517;DHT22;64097;52.548;13.406;2023-09-18T08:47:39;26.00;54.40
75517;DHT22;64097;52.548;13.406;2023-09-18T08:50:08;26.00;54.20
75517;DHT22;64097;52.548;13.406;2023-09-18T08:52:35;26.10;54.30
75517;DHT22;64097;52.548;13.406;2023-09-18T08:55:01;26.10;54.20
75517;DHT22;64097;52.548;13.406;2023-09-18T08:57:29;26.20;54.20
75517;DHT22;64097;52.548;13.406;2023-09-18T08:59:56;26.20;54.30
75517;DHT22;64097;52.548;13.406;2023-09-18T09:02:23;26.20;54.20
75517;DHT22;64097;52.548;13.406;2023-09-18T09:04:48;26.30;53.90
75517;DHT22;64097;52.548;13.406;2023-09-18T09:07:14;26.40;53.80
75517;DHT22;64097;52.548;13.406;2023-09-18T09:09:40;26.50;53.70
75517;DHT22;64097;52.548;13.406;2023-09-18T09:12:07;26.50;53.60
75517;DHT22;64097;52.548;13.406;2023-09-18T09:14:33;26.50;53.60
75517;DHT22;64097;52.548;13.406;2023-09-18T09:16:59;26.60;53.50
75517;DHT22;64097;52.548;13.406;2023-09-18T09:21:55;26.80;53.30
75517;DHT22;64097;52.548;13.406;2023-09-18T09:24:43;26.80;53.20
75517;DHT22;64097;52.548;13.406;2023-09-18T09:27:12;26.90;53.10
75517;DHT22;64097;52.548;13.406;2023-09-18T09:29:39;26.90;52.80
75517;DHT22;64097;52.548;13.406;2023-09-18T09:32:18;27.00;52.70
75517;DHT22;64097;52.548;13.406;2023-09-18T09:34:45;27.10;52.60
75517;DHT22;64097;52.548;13.406;2023-09-18T09:37:12;27.10;52.40
75517;DHT22;64097;52.548;13.406;2023-09-18T09:39:49;27.20;52.20
75517;DHT22;64097;52.548;13.406;2023-09-18T09:42:16;27.20;51.70
75517;DHT22;64097;52.548;13.406;2023-09-18T09:44:43;27.30;51.60
75517;DHT22;64097;52.548;13.406;2023-09-18T09:47:09;27.40;51.30
75517;DHT22;64097;52.548;13.406;2023-09-18T09:49:47;27.40;50.90
75517;DHT22;64097;52.548;13.406;2023-09-18T09:52:19;27.50;50.80
75517;DHT22;64097;52.548;13.406;2023-09-18T09:54:48;27.50;50.40
75517;DHT22;64097;52.548;13.406;2023-09-18T09:57:14;27.50;50.60
75517;DHT22;64097;52.548;13.406;2023-09-18T09:59:43;27.60;50.60
75517;DHT22;64097;52.548;13.406;2023-09-18T10:02:10;27.60;50.50
75517;DHT22;64097;52.548;13.406;2023-09-18T10:04:40;27.60;50.40
75517;DHT22;64097;52.548;13.406;2023-09-18T10:07:07;27.70;50.40
75517;DHT22;64097;52.548;13.406;2023-09-18T10:09:41;27.80;50.30
75517;DHT22;64097;52.548;13.406;2023-09-18T10:12:11;27.80;50.40
75517;DHT22;64097;52.548;13.406;2023-09-18T10:14:38;27.90;50.30
75517;DHT22;64097;52.548;13.406;2023-09-18T10:17:17;28.00;50.30
75517;DHT22;64097;52.548;13.406;2023-09-18T10:20:11;28.00;50.30
75517;DHT22;64097;52.548;13.406;2023-09-18T10:22:44;28.00;50.00
75517;DHT22;64097;52.548;13.406;2023-09-18T10:25:17;28.10;50.00
75517;DHT22;64097;52.548;13.406;2023-09-18T10:27:47;28.10;50.10
75517;DHT22;64097;52.548;13.406;2023-09-18T10:30:19;28.20;50.00
75517;DHT22;64097;52.548;13.406;2023-09-18T10:32:48;28.20;49.80
75517;DHT22;64097;52.548;13.406;2023-09-18T10:35:15;28.30;49.70
75517;DHT22;64097;52.548;13.406;2023-09-18T10:37:45;28.30;49.60
75517;DHT22;64097;52.548;13.406;2023-09-18T10:40:12;28.30;49.60
75517;DHT22;64097;52.548;13.406;2023-09-18T10:42:39;28.30;49.70
75517;DHT22;64097;52.548;13.406;2023-09-18T10:45:08;28.40;49.80
75517;DHT22;64097;52.548;13.406;2023-09-18T10:47:40;28.40;49.70
75517;DHT22;64097;52.548;13.406;2023-09-18T10:50:08;28.50;49.80
75517;DHT22;64097;52.548;13.406;2023-09-18T10:52:35;28.50;49.50
75517;DHT22;64097;52.548;13.406;2023-09-18T10:55:03;28.60;49.50
75517;DHT22;64097;52.548;13.406;2023-09-18T10:57:36;28.60;49.00
75517;DHT22;64097;52.548;13.406;2023-09-18T11:00:04;28.60;48.30
75517;DHT22;64097;52.548;13.406;2023-09-18T11:02:40;28.60;48.10
75517;DHT22;64097;52.548;13.406;2023-09-18T11:05:06;28.60;48.00
75517;DHT22;64097;52.548;13.406;2023-09-18T11:07:32;28.60;48.00
75517;DHT22;64097;52.548;13.406;2023-09-18T11:09:58;28.60;47.90
75517;DHT22;64097;52.548;13.406;2023-09-18T11:12:43;28.60;48.70
75517;DHT22;64097;52.548;13.406;2023-09-18T11:15:25;28.60;48.00
75517;DHT22;64097;52.548;13.406;2023-09-18T11:17:59;28.70;48.10
75517;DHT22;64097;52.548;13.406;2023-09-18T11:20:28;28.70;47.90
75517;DHT22;64097;52.548;13.406;2023-09-18T11:25:40;28.70;47.70
75517;DHT22;64097;52.548;13.406;2023-09-18T11:28:26;28.70;47.90
75517;DHT22;64097;52.548;13.406;2023-09-18T11:30:56;28.70;47.90
75517;DHT22;64097;52.548;13.406;2023-09-18T11:33:35;28.70;48.00
75517;DHT22;64097;52.548;13.406;2023-09-18T11:36:12;28.80;48.00
75517;DHT22;64097;52.548;13.406;2023-09-18T11:38:59;28.80;48.20
75517;DHT22;64097;52.548;13.406;2023-09-18T11:41:29;28.70;48.00
75517;DHT22;64097;52.548;13.406;2023-09-18T11:46:40;28.80;48.80
75517;DHT22;64097;52.548;13.406;2023-09-18T11:49:10;28.80;47.90
75517;DHT22;64097;52.548;13.406;2023-09-18T11:51:37;28.80;47.90
75517;DHT22;64097;52.548;13.406;2023-09-18T11:54:03;28.80;47.90
75517;DHT22;64097;52.548;13.406;2023-09-18T11:56:32;28.80;47.90
75517;DHT22;64097;52.548;13.406;2023-09-18T11:58:58;28.80;47.90
75517;DHT22;64097;52.548;13.406;2023-09-18T12:01:25;28.80;48.00
75517;DHT22;64097;52.548;13.406;2023-09-18T12:04:00;28.80;48.00
75517;DHT22;64097;52.548;13.406;2023-09-18T12:06:26;28.80;48.10
75517;DHT22;64097;52.548;13.406;2023-09-18T12:08:53;28.80;48.10
75517;DHT22;64097;52.548;13.406;2023-09-18T12:11:20;28.80;48.20
75517;DHT22;64097;52.548;13.406;2023-09-18T12:13:47;28.80;47.90
75517;DHT22;64097;52.548;13.406;2023-09-18T12:16:15;28.80;48.10
75517;DHT22;64097;52.548;13.406;2023-09-18T12:18:50;28.80;47.90
75517;DHT22;64097;52.548;13.406;2023-09-18T12:21:17;28.80;48.00
75517;DHT22;64097;52.548;13.406;2023-09-18T12:23:44;28.80;48.00
75517;DHT22;64097;52.548;13.406;2023-09-18T12:26:15;28.90;48.00
75517;DHT22;64097;52.548;13.406;2023-09-18T12:28:42;28.90;48.00
75517;DHT22;64097;52.548;13.406;2023-09-18T12:31:14;29.00;48.00
75517;DHT22;64097;52.548;13.406;2023-09-18T12:33:42;29.00;48.00
75517;DHT22;64097;52.548;13.406;2023-09-18T12:36:09;29.00;47.80
75517;DHT22;64097;52.548;13.406;2023-09-18T12:38:36;29.10;47.80
75517;DHT22;64097;52.548;13.406;2023-09-18T12:41:03;29.10;47.70
75517;DHT22;64097;52.548;13.406;2023-09-18T12:43:37;29.10;47.30
75517;DHT22;64097;52.548;13.406;2023-09-18T12:46:05;29.20;47.30
75517;DHT22;64097;52.548;13.406;2023-09-18T12:48:31;29.20;46.90
75517;DHT22;64097;52.548;13.406;2023-09-18T12:51:05;29.20;47.00
75517;DHT22;64097;52.548;13.406;2023-09-18T12:53:31;29.10;46.90
75517;DHT22;64097;52.548;13.406;2023-09-18T12:56:13;29.10;46.90
75517;DHT22;64097;52.548;13.406;2023-09-18T12:58:43;29.10;46.10
75517;DHT22;64097;52.548;13.406;2023-09-18T13:01:10;29.10;46.80
75517;DHT22;64097;52.548;13.406;2023-09-18T13:03:45;29.10;47.00
75517;DHT22;64097;52.548;13.406;2023-09-18T13:06:16;29.00;47.00
75517;DHT22;64097;52.548;13.406;2023-09-18T13:08:48;29.00;47.00
75517;DHT22;64097;52.548;13.406;2023-09-18T13:11:14;29.00;47.00
75517;DHT22;64097;52.548;13.406;2023-09-18T13:13:42;29.00;47.10
75517;DHT22;64097;52.548;13.406;2023-09-18T13:16:10;29.00;47.20
75517;DHT22;64097;52.548;13.406;2023-09-18T13:18:36;29.00;47.20
75517;DHT22;64097;52.548;13.406;2023-09-18T13:21:13;28.90;47.50
75517;DHT22;64097;52.548;13.406;2023-09-18T13:23:39;28.90;47.80
75517;DHT22;64097;52.548;13.406;2023-09-18T13:26:06;28.90;47.90
75517;DHT22;64097;52.548;13.406;2023-09-18T13:28:34;28.90;48.00
75517;DHT22;64097;52.548;13.406;2023-09-18T13:31:04;28.90;48.00
75517;DHT22;64097;52.548;13.406;2023-09-18T13:33:37;28.90;47.90
75517;DHT22;64097;52.548;13.406;2023-09-18T13:36:03;28.90;48.00
75517;DHT22;64097;52.548;13.406;2023-09-18T13:38:30;28.90;47.90
75517;DHT22;64097;52.548;13.406;2023-09-18T13:40:56;28.90;47.90
75517;DHT22;64097;52.548;13.406;2023-09-18T13:43:21;28.90;48.20
75517;DHT22;64097;52.548;13.406;2023-09-18T13:45:48;28.90;48.40
75517;DHT22;64097;52.548;13.406;2023-09-18T13:48:17;28.90;48.80
75517;DHT22;64097;52.548;13.406;2023-09-18T13:50:43;28.80;49.30
75517;DHT22;64097;52.548;13.406;2023-09-18T13:53:09;28.80;49.70
75517;DHT22;64097;52.548;13.406;2023-09-18T13:55:35;28.80;50.10
75517;DHT22;64097;52.548;13.406;2023-09-18T13:58:01;28.80;50.60
